Time;durP1;ratioP1;P1;durP2;ratioP2;P2;SDS_P1;SDS_P2;PMS_P1;PMS_P2;Temp;Humidity;BMP_temperature;BMP_pressure;BME280_temperature;BME280_humidity;BME280_pressure;Samples;Min_cycle;Max_cycle;Signal;HPM_P1;HPM_P2
2023/06/08 00:01:45;;;;;;;17.15;8.15;;;14.20;99.90;;;;;;5029414;28;20037;-64
2023/06/08 00:04:12;;;;;;;16.73;7.18;;;14.20;99.90;;;;;;5039242;28;20039;-63
2023/06/08 00:06:40;;;;;;;19.60;8.05;;;14.30;99.90;;;;;;5034071;28;20052;-63
2023/06/08 00:09:07;;;;;;;14.82;7.60;;;14.20;99.90;;;;;;4996056;28;20033;-63
2023/06/08 00:11:32;;;;;;;14.25;7.65;;;14.20;99.90;;;;;;5032840;28;20040;-63
2023/06/08 00:13:59;;;;;;;15.45;8.23;;;14.20;99.90;;;;;;5021241;28;20045;-63
2023/06/08 00:16:27;;;;;;;20.70;8.23;;;14.20;99.90;;;;;;5031673;28;20041;-63
2023/06/08 00:18:57;;;;;;;15.77;8.05;;;14.20;99.90;;;;;;5013021;28;20502;-63
2023/06/08 00:21:26;;;;;;;14.98;8.20;;;14.20;99.90;;;;;;5034888;28;20041;-63
2023/06/08 00:23:52;;;;;;;17.30;8.00;;;14.20;99.90;;;;;;5029655;28;20591;-62
2023/06/08 00:26:18;;;;;;;16.55;8.18;;;14.20;99.90;;;;;;5031372;28;20120;-63
2023/06/08 00:28:47;;;;;;;16.58;8.63;;;14.20;99.90;;;;;;5013265;28;20137;-63
2023/06/08 00:31:13;;;;;;;23.33;8.90;;;14.20;99.90;;;;;;5029012;28;20519;-63
2023/06/08 00:33:39;;;;;;;17.02;8.07;;;14.10;99.90;;;;;;5031571;28;20033;-63
2023/06/08 00:36:05;;;;;;;19.45;8.88;;;14.20;99.90;;;;;;5030004;28;20253;-63
2023/06/08 00:38:31;;;;;;;17.15;9.18;;;14.20;99.90;;;;;;5036970;28;20029;-62
2023/06/08 00:40:57;;;;;;;16.88;7.78;;;14.20;99.90;;;;;;5037287;28;20045;-63
2023/06/08 00:43:22;;;;;;;14.25;8.07;;;14.20;99.90;;;;;;5029707;28;20042;-63
2023/06/08 00:45:48;;;;;;;18.20;8.57;;;14.20;99.90;;;;;;5021642;28;20098;-63
2023/06/08 00:48:15;;;;;;;17.13;8.55;;;14.20;99.90;;;;;;5032579;28;20120;-63
2023/06/08 00:50:41;;;;;;;14.60;7.97;;;14.10;99.90;;;;;;5031022;28;20068;-63
2023/06/08 00:53:07;;;;;;;15.27;7.85;;;14.20;99.90;;;;;;5029786;28;20038;-63
2023/06/08 00:55:33;;;;;;;17.25;8.18;;;14.10;99.90;;;;;;5025051;28;20459;-63
2023/06/08 00:58:00;;;;;;;19.20;8.63;;;14.10;99.90;;;;;;5018884;28;20045;-64
2023/06/08 01:00:28;;;;;;;15.30;8.15;;;14.10;99.90;;;;;;5017561;28;20556;-63
2023/06/08 01:02:55;;;;;;;20.13;8.65;;;14.10;99.90;;;;;;5027716;28;20081;-64
2023/06/08 01:05:21;;;;;;;13.95;7.80;;;14.10;99.90;;;;;;5030359;28;20373;-64
2023/06/08 01:08:04;;;;;;;15.25;7.25;;;14.10;99.90;;;;;;5029398;28;20041;-64
2023/06/08 01:10:57;;;;;;;16.63;7.70;;;14.00;99.90;;;;;;5029248;28;20088;-65
2023/06/08 01:13:47;;;;;;;17.98;7.45;;;14.00;99.90;;;;;;5024706;28;20044;-64
2023/06/08 01:16:17;;;;;;;14.32;7.22;;;14.00;99.90;;;;;;5038455;28;20042;-64
2023/06/08 01:18:44;;;;;;;15.20;7.78;;;14.00;99.90;;;;;;5016619;28;20053;-64
2023/06/08 01:21:37;;;;;;;14.00;7.75;;;14.00;99.90;;;;;;5038566;28;20045;-64
2023/06/08 01:24:13;;;;;;;13.23;7.30;;;13.90;99.90;;;;;;5029468;28;20041;-64
2023/06/08 01:26:41;;;;;;;16.63;7.00;;;13.90;99.90;;;;;;5026849;28;20040;-63
2023/06/08 01:29:09;;;;;;;14.35;7.57;;;13.90;99.90;;;;;;5031840;28;20033;-63
2023/06/08 01:31:36;;;;;;;15.73;7.38;;;13.90;99.90;;;;;;5030940;28;20080;-64
2023/06/08 01:34:03;;;;;;;17.75;7.20;;;13.80;99.90;;;;;;5029302;28;20033;-64
2023/06/08 01:37:02;;;;;;;14.70;7.22;;;13.80;99.90;;;;;;5035797;28;20495;-64
2023/06/08 01:39:35;;;;;;;15.27;6.95;;;13.80;99.90;;;;;;5025127;28;20079;-63
2023/06/08 01:42:03;;;;;;;14.77;7.18;;;13.80;99.90;;;;;;5028853;28;20132;-66
2023/06/08 01:44:33;;;;;;;16.05;6.93;;;13.80;99.90;;;;;;5028009;28;20422;-63
2023/06/08 01:47:00;;;;;;;14.85;6.93;;;13.70;99.90;;;;;;5037308;28;20084;-63
2023/06/08 01:49:28;;;;;;;15.40;7.13;;;13.70;99.90;;;;;;5030017;28;20040;-63
2023/06/08 01:51:54;;;;;;;15.05;7.55;;;13.70;99.90;;;;;;5040643;28;20132;-63
2023/06/08 01:54:23;;;;;;;13.63;8.00;;;13.70;99.90;;;;;;5011524;28;20407;-62
2023/06/08 01:56:49;;;;;;;15.35;6.97;;;13.70;99.90;;;;;;5031962;28;20404;-61
2023/06/08 01:59:15;;;;;;;13.35;7.55;;;13.60;99.90;;;;;;5026674;28;20040;-62
2023/06/08 02:01:40;;;;;;;17.30;7.95;;;13.60;99.90;;;;;;5032517;28;20037;-62
2023/06/08 02:04:06;;;;;;;16.05;7.55;;;13.60;99.90;;;;;;5036602;28;20449;-65
2023/06/08 02:06:32;;;;;;;19.17;9.27;;;13.60;99.90;;;;;;5016536;28;20084;-63
2023/06/08 02:08:57;;;;;;;12.35;7.65;;;13.60;99.90;;;;;;5037971;28;20102;-62
2023/06/08 02:11:23;;;;;;;16.75;7.97;;;13.60;99.90;;;;;;5016615;28;20049;-62
2023/06/08 02:13:49;;;;;;;19.05;7.70;;;13.70;99.90;;;;;;5027834;28;20083;-62
2023/06/08 02:16:18;;;;;;;16.45;8.20;;;13.60;99.90;;;;;;5030429;28;20057;-62
2023/06/08 02:18:45;;;;;;;17.52;8.43;;;13.60;99.90;;;;;;5020580;28;20037;-66
2023/06/08 02:21:11;;;;;;;18.15;8.68;;;13.60;99.90;;;;;;5024754;28;20037;-63
2023/06/08 02:23:38;;;;;;;18.40;9.18;;;13.60;99.90;;;;;;5031268;28;20045;-62
2023/06/08 02:26:05;;;;;;;18.90;8.68;;;13.60;99.90;;;;;;5028999;28;20116;-62
2023/06/08 02:28:31;;;;;;;20.50;9.30;;;13.60;99.90;;;;;;5019316;28;20084;-65
2023/06/08 02:30:57;;;;;;;18.00;8.80;;;13.70;99.90;;;;;;5033142;28;20042;-67
2023/06/08 02:33:23;;;;;;;17.77;9.82;;;13.60;99.90;;;;;;5040828;28;20044;-61
2023/06/08 02:35:49;;;;;;;20.63;9.52;;;13.60;99.90;;;;;;5014726;28;20122;-63
2023/06/08 02:38:16;;;;;;;17.17;10.70;;;13.70;99.90;;;;;;5010223;28;20120;-64
2023/06/08 02:40:42;;;;;;;20.13;10.88;;;13.60;99.90;;;;;;4999845;28;20045;-64
2023/06/08 02:43:08;;;;;;;20.52;10.77;;;13.60;99.90;;;;;;5037087;28;20403;-61
2023/06/08 02:45:34;;;;;;;20.85;10.95;;;13.60;99.90;;;;;;5039695;28;20041;-61
2023/06/08 02:48:00;;;;;;;23.15;11.70;;;13.50;99.90;;;;;;5042283;28;20030;-62
2023/06/08 02:50:26;;;;;;;25.38;12.55;;;13.60;99.90;;;;;;5010135;28;20099;-63
2023/06/08 02:52:51;;;;;;;20.52;11.90;;;13.60;99.90;;;;;;5015219;28;20077;-63
2023/06/08 02:55:17;;;;;;;23.80;11.75;;;13.60;99.90;;;;;;5018624;28;20038;-63
2023/06/08 02:57:43;;;;;;;22.02;11.75;;;13.60;99.90;;;;;;5036391;28;20040;-62
2023/06/08 03:00:12;;;;;;;22.58;11.68;;;13.50;99.90;;;;;;5037391;28;20052;-63
2023/06/08 03:02:38;;;;;;;24.75;13.07;;;13.50;99.90;;;;;;5011213;28;20037;-63
2023/06/08 03:05:04;;;;;;;24.25;11.73;;;13.50;99.90;;;;;;5016716;28;20044;-63
2023/06/08 03:07:33;;;;;;;21.15;13.00;;;13.50;99.90;;;;;;5004299;28;20476;-63
2023/06/08 03:10:00;;;;;;;28.55;12.60;;;13.50;99.90;;;;;;5012446;28;20095;-63
2023/06/08 03:12:25;;;;;;;22.23;12.75;;;13.40;99.90;;;;;;5016423;28;20570;-63
2023/06/08 03:14:53;;;;;;;23.50;12.98;;;13.40;99.90;;;;;;5022014;28;20507;-63
2023/06/08 03:17:20;;;;;;;23.80;12.95;;;13.40;99.90;;;;;;5023764;28;20087;-63
2023/06/08 03:19:45;;;;;;;22.98;13.13;;;13.40;99.90;;;;;;5029856;28;20119;-63
2023/06/08 03:22:11;;;;;;;20.90;12.77;;;13.40;99.90;;;;;;5035559;28;20448;-63
2023/06/08 03:24:37;;;;;;;22.52;13.38;;;13.40;99.90;;;;;;5022431;28;20044;-63
2023/06/08 03:27:06;;;;;;;23.17;12.75;;;13.40;99.90;;;;;;5033195;28;20112;-63
2023/06/08 03:29:31;;;;;;;24.45;13.20;;;13.40;99.90;;;;;;5034603;28;20090;-63
2023/06/08 03:31:58;;;;;;;24.67;13.63;;;13.30;99.90;;;;;;5036147;28;20037;-63
2023/06/08 03:34:25;;;;;;;22.02;12.75;;;13.30;99.90;;;;;;5031128;28;20045;-63
2023/06/08 03:36:51;;;;;;;25.70;12.10;;;13.30;99.90;;;;;;5038954;28;20487;-63
2023/06/08 03:39:17;;;;;;;19.50;11.73;;;13.30;99.90;;;;;;5014495;28;20072;-63
2023/06/08 03:41:43;;;;;;;22.08;11.55;;;13.20;99.90;;;;;;5032034;28;20530;-63
2023/06/08 03:44:09;;;;;;;23.35;12.68;;;13.30;99.90;;;;;;5032079;28;20396;-63
2023/06/08 03:46:35;;;;;;;22.13;12.50;;;13.20;99.90;;;;;;5039918;28;20037;-63
2023/06/08 03:49:00;;;;;;;20.63;12.45;;;13.20;99.90;;;;;;5033501;28;20117;-63
2023/06/08 03:51:26;;;;;;;19.42;11.75;;;13.20;99.90;;;;;;5036532;28;20034;-63
2023/06/08 03:53:52;;;;;;;20.17;11.63;;;13.20;99.90;;;;;;5031630;28;20029;-63
2023/06/08 03:56:17;;;;;;;25.85;12.30;;;13.20;99.90;;;;;;5015350;28;20152;-63
2023/06/08 03:58:44;;;;;;;22.00;12.02;;;13.30;99.90;;;;;;5009493;28;20076;-63
2023/06/08 04:01:10;;;;;;;22.17;12.35;;;13.20;99.90;;;;;;5024398;28;20041;-63
2023/06/08 04:03:36;;;;;;;22.10;11.48;;;13.30;99.90;;;;;;5021558;28;20049;-63
2023/06/08 04:06:08;;;;;;;23.27;11.73;;;13.30;99.90;;;;;;5022607;28;20228;-63
2023/06/08 04:08:39;;;;;;;22.17;11.55;;;13.30;99.90;;;;;;5009964;28;20048;-63
2023/06/08 04:11:05;;;;;;;27.83;12.20;;;13.40;99.90;;;;;;5027023;28;20042;-63
2023/06/08 04:13:30;;;;;;;23.13;11.82;;;13.40;99.90;;;;;;5030942;28;20480;-63
2023/06/08 04:15:56;;;;;;;22.50;11.88;;;13.40;99.90;;;;;;4996286;28;20069;-62
2023/06/08 04:18:22;;;;;;;19.75;12.18;;;13.40;99.90;;;;;;5028793;28;20630;-62
2023/06/08 04:20:48;;;;;;;27.70;11.95;;;13.40;99.90;;;;;;5034178;28;20112;-62
2023/06/08 04:23:15;;;;;;;24.60;12.02;;;13.40;99.90;;;;;;5013234;28;20120;-63
2023/06/08 04:25:41;;;;;;;25.75;12.65;;;13.50;99.90;;;;;;5030309;28;20044;-63
2023/06/08 04:28:06;;;;;;;22.38;11.43;;;13.50;99.90;;;;;;5012783;28;20431;-63
2023/06/08 04:30:32;;;;;;;22.35;12.35;;;13.50;99.90;;;;;;5030537;28;20174;-63
2023/06/08 04:32:59;;;;;;;23.35;11.70;;;13.40;99.90;;;;;;5017201;28;20116;-63
2023/06/08 04:35:25;;;;;;;24.95;12.63;;;13.40;99.90;;;;;;5032269;28;20083;-63
2023/06/08 04:37:51;;;;;;;25.25;12.30;;;13.40;99.90;;;;;;5031122;28;20034;-63
2023/06/08 04:40:16;;;;;;;22.73;11.75;;;13.50;99.90;;;;;;5030743;28;20088;-63
2023/06/08 04:42:44;;;;;;;25.55;12.10;;;13.40;99.90;;;;;;5031475;28;20037;-63
2023/06/08 04:45:11;;;;;;;20.92;11.60;;;13.40;99.90;;;;;;5032769;28;20494;-63
2023/06/08 04:47:37;;;;;;;22.50;11.45;;;13.40;99.90;;;;;;5025568;28;20040;-63
2023/06/08 04:50:07;;;;;;;17.67;10.77;;;13.40;99.90;;;;;;5012230;28;20041;-63
2023/06/08 04:52:40;;;;;;;18.92;11.40;;;13.40;99.90;;;;;;5030229;28;20064;-63
2023/06/08 04:55:06;;;;;;;20.65;11.80;;;13.40;99.90;;;;;;5009099;28;20041;-63
2023/06/08 04:57:32;;;;;;;19.02;11.35;;;13.40;99.90;;;;;;5022285;28;20456;-63
2023/06/08 04:59:59;;;;;;;23.70;11.98;;;13.40;99.90;;;;;;5012971;28;20076;-63
2023/06/08 05:02:25;;;;;;;22.17;11.93;;;13.40;99.90;;;;;;5011336;28;20037;-63
2023/06/08 05:04:50;;;;;;;21.80;12.20;;;13.40;99.90;;;;;;5029442;28;20542;-63
2023/06/08 05:07:16;;;;;;;26.15;11.93;;;13.40;99.90;;;;;;5035696;28;20059;-63
2023/06/08 05:09:41;;;;;;;21.83;11.70;;;13.40;99.90;;;;;;5024756;28;20037;-63
2023/06/08 05:12:07;;;;;;;21.77;12.93;;;13.40;99.90;;;;;;5032019;28;20128;-63
2023/06/08 05:14:33;;;;;;;18.55;11.93;;;13.40;99.90;;;;;;5030351;28;20438;-63
2023/06/08 05:16:59;;;;;;;24.40;12.77;;;13.40;99.90;;;;;;5022038;28;20037;-63
2023/06/08 05:19:24;;;;;;;20.70;11.73;;;13.40;99.90;;;;;;5030443;28;20034;-63
2023/06/08 05:21:50;;;;;;;21.05;12.32;;;13.40;99.90;;;;;;5006760;28;20045;-63
2023/06/08 05:24:15;;;;;;;22.08;12.45;;;13.40;99.90;;;;;;5006885;28;20407;-63
2023/06/08 05:26:42;;;;;;;28.52;12.80;;;13.40;99.90;;;;;;5025569;28;20045;-63
2023/06/08 05:29:08;;;;;;;22.88;12.50;;;13.30;99.90;;;;;;5029619;28;20046;-63
2023/06/08 05:31:34;;;;;;;21.42;12.00;;;13.30;99.90;;;;;;5023277;28;20040;-63
2023/06/08 05:33:59;;;;;;;21.23;12.18;;;13.30;99.90;;;;;;5020396;28;20045;-63
2023/06/08 05:36:25;;;;;;;25.00;11.82;;;13.40;99.90;;;;;;5025438;28;20150;-63
2023/06/08 05:38:51;;;;;;;20.90;11.73;;;13.40;99.90;;;;;;5029710;28;20080;-63
2023/06/08 05:41:16;;;;;;;21.90;12.00;;;13.40;99.90;;;;;;5028796;28;20080;-63
2023/06/08 05:43:42;;;;;;;21.83;11.85;;;13.40;99.90;;;;;;5019415;28;20076;-63
2023/06/08 05:46:08;;;;;;;20.83;11.88;;;13.40;99.90;;;;;;5008221;28;20500;-63
2023/06/08 05:48:33;;;;;;;20.73;11.15;;;13.40;99.90;;;;;;5032855;28;20033;-63
2023/06/08 05:50:59;;;;;;;21.90;11.77;;;13.40;99.90;;;;;;5004698;28;20305;-63
2023/06/08 05:53:25;;;;;;;21.90;11.57;;;13.50;99.90;;;;;;5007435;28;20137;-63
2023/06/08 05:55:51;;;;;;;22.85;11.50;;;13.50;99.90;;;;;;5009660;28;20528;-63
2023/06/08 05:58:17;;;;;;;25.17;11.88;;;13.50;99.90;;;;;;5023177;28;20046;-63
2023/06/08 06:00:43;;;;;;;19.20;11.02;;;13.50;99.90;;;;;;5025040;28;20065;-63
2023/06/08 06:03:09;;;;;;;22.40;11.52;;;13.50;99.90;;;;;;5021050;28;20053;-63
2023/06/08 06:05:35;;;;;;;19.65;11.25;;;13.50;99.90;;;;;;5009576;28;20034;-63
2023/06/08 06:08:00;;;;;;;22.42;12.30;;;13.50;99.90;;;;;;5030823;28;20084;-63
2023/06/08 06:10:26;;;;;;;23.13;11.85;;;13.60;99.90;;;;;;5033656;28;20037;-63
2023/06/08 06:12:51;;;;;;;20.38;11.63;;;13.50;99.90;;;;;;5033228;28;20127;-63
2023/06/08 06:15:18;;;;;;;20.52;11.60;;;13.60;99.90;;;;;;5033388;28;20037;-63
2023/06/08 06:17:44;;;;;;;21.27;11.40;;;13.60;99.90;;;;;;5015712;28;20495;-63
2023/06/08 06:20:10;;;;;;;18.15;11.10;;;13.70;99.90;;;;;;5013286;28;20044;-63
2023/06/08 06:22:35;;;;;;;20.33;11.15;;;13.60;99.90;;;;;;5029271;28;20037;-63
2023/06/08 06:25:01;;;;;;;20.13;10.85;;;13.70;99.90;;;;;;5029708;28;20198;-63
2023/06/08 06:27:26;;;;;;;22.20;11.80;;;13.70;99.90;;;;;;5033942;28;20040;-63
2023/06/08 06:29:53;;;;;;;20.08;10.82;;;13.80;99.90;;;;;;5033530;28;20107;-63
2023/06/08 06:32:19;;;;;;;19.83;10.55;;;13.80;99.90;;;;;;5033606;28;20065;-63
2023/06/08 06:34:45;;;;;;;22.20;10.88;;;13.80;99.90;;;;;;5033045;28;20123;-63
2023/06/08 06:37:10;;;;;;;20.40;9.95;;;13.90;99.90;;;;;;5033090;28;20030;-63
2023/06/08 06:39:36;;;;;;;17.27;9.98;;;13.90;99.90;;;;;;5015248;28;20045;-63
2023/06/08 06:42:02;;;;;;;19.85;10.02;;;13.90;99.90;;;;;;5026047;28;20508;-63
2023/06/08 06:44:28;;;;;;;17.15;10.05;;;14.00;99.90;;;;;;5031176;28;20483;-63
2023/06/08 06:46:54;;;;;;;20.40;10.30;;;14.00;99.90;;;;;;5030913;28;20495;-63
2023/06/08 06:49:19;;;;;;;18.23;10.02;;;14.10;99.90;;;;;;5026433;28;20049;-63
2023/06/08 06:51:45;;;;;;;14.93;9.10;;;14.10;99.90;;;;;;5031791;28;20038;-63
2023/06/08 06:54:10;;;;;;;16.15;9.77;;;14.10;99.90;;;;;;5033100;28;20044;-63
2023/06/08 06:56:36;;;;;;;16.13;9.77;;;14.20;99.90;;;;;;5042031;28;20029;-63
2023/06/08 06:59:02;;;;;;;20.50;10.13;;;14.20;99.90;;;;;;5026831;28;20037;-63
2023/06/08 07:01:30;;;;;;;19.58;9.95;;;14.30;99.90;;;;;;5044477;28;20045;-63
2023/06/08 07:03:56;;;;;;;23.88;10.70;;;14.30;99.90;;;;;;5018174;28;20049;-63
2023/06/08 07:06:24;;;;;;;22.23;9.90;;;14.30;99.90;;;;;;5038582;28;20040;-63
2023/06/08 07:08:50;;;;;;;20.83;10.60;;;14.30;99.90;;;;;;5016788;28;20056;-63
2023/06/08 07:11:15;;;;;;;19.92;10.52;;;14.40;99.90;;;;;;5037982;28;20038;-63
2023/06/08 07:13:41;;;;;;;17.25;10.38;;;14.40;99.90;;;;;;5033431;28;20095;-63
2023/06/08 07:16:06;;;;;;;17.58;10.65;;;14.40;99.90;;;;;;5044353;28;20135;-63
2023/06/08 07:18:32;;;;;;;18.77;9.85;;;14.50;99.90;;;;;;5043852;28;20041;-63
2023/06/08 07:20:58;;;;;;;18.55;10.10;;;14.50;99.90;;;;;;5002873;28;20511;-63
2023/06/08 07:23:23;;;;;;;16.33;9.23;;;14.60;99.90;;;;;;5002266;28;20049;-63
2023/06/08 07:25:49;;;;;;;16.73;9.77;;;14.60;99.90;;;;;;4985890;28;20042;-63
2023/06/08 07:28:16;;;;;;;16.52;9.20;;;14.70;99.90;;;;;;5025833;28;20033;-63
2023/06/08 07:30:42;;;;;;;19.70;9.15;;;14.70;99.90;;;;;;5016659;28;20054;-63
2023/06/08 07:33:07;;;;;;;21.58;9.63;;;14.80;99.90;;;;;;5021867;28;20029;-63
2023/06/08 07:35:33;;;;;;;16.70;9.20;;;14.80;99.90;;;;;;5024005;28;20030;-63
2023/06/08 07:37:58;;;;;;;18.50;9.55;;;14.80;99.90;;;;;;5020834;28;20041;-63
2023/06/08 07:40:24;;;;;;;19.52;9.70;;;14.90;99.90;;;;;;5019584;28;20036;-63
2023/06/08 07:42:51;;;;;;;15.45;8.98;;;14.90;99.90;;;;;;5025162;28;20029;-63
2023/06/08 07:45:17;;;;;;;17.33;9.15;;;14.90;99.90;;;;;;5001323;28;20037;-63
2023/06/08 07:47:43;;;;;;;18.85;8.95;;;15.00;99.90;;;;;;5015999;28;20068;-63
2023/06/08 07:50:10;;;;;;;16.92;9.32;;;15.10;99.90;;;;;;5027842;28;20030;-63
2023/06/08 07:52:36;;;;;;;15.40;7.75;;;15.20;99.90;;;;;;5021065;28;20099;-63
2023/06/08 07:55:02;;;;;;;17.67;9.02;;;15.20;99.90;;;;;;5067776;22;20075;-75
2023/06/08 07:57:29;;;;;;;17.60;8.32;;;15.30;99.90;;;;;;5042897;28;20068;-75
2023/06/08 07:59:55;;;;;;;18.58;8.20;;;15.50;99.90;;;;;;5027021;28;20500;-75
2023/06/08 08:02:21;;;;;;;16.30;8.60;;;15.50;99.90;;;;;;5063281;28;20051;-75
2023/06/08 08:04:46;;;;;;;16.13;8.93;;;15.60;99.90;;;;;;5043773;28;20044;-76
2023/06/08 08:07:12;;;;;;;18.38;8.98;;;15.80;99.90;;;;;;5050384;28;20037;-74
2023/06/08 08:09:38;;;;;;;17.42;8.05;;;15.90;99.90;;;;;;5043317;28;20094;-74
2023/06/08 08:12:04;;;;;;;17.48;8.25;;;16.00;99.90;;;;;;5045468;28;20036;-74
2023/06/08 08:14:29;;;;;;;17.17;8.48;;;16.20;99.90;;;;;;5063940;28;20431;-75
2023/06/08 08:16:55;;;;;;;16.55;9.02;;;16.40;99.90;;;;;;5039155;28;20029;-75
2023/06/08 08:19:20;;;;;;;14.55;9.35;;;16.50;99.90;;;;;;5037224;28;20037;-74
2023/06/08 08:21:46;;;;;;;17.85;8.68;;;16.70;99.90;;;;;;5018262;28;20504;-75
2023/06/08 08:24:11;;;;;;;14.32;7.85;;;16.90;99.90;;;;;;5045882;28;20174;-75
2023/06/08 08:26:40;;;;;;;17.38;8.30;;;17.20;99.90;;;;;;5039902;28;20036;-74
2023/06/08 08:29:06;;;;;;;19.05;8.70;;;17.40;99.90;;;;;;5045047;28;20048;-75
2023/06/08 08:31:32;;;;;;;16.58;8.77;;;17.50;99.90;;;;;;5028450;28;20515;-75
2023/06/08 08:33:58;;;;;;;16.90;9.00;;;17.50;99.90;;;;;;5044525;28;20072;-75
2023/06/08 08:36:23;;;;;;;19.58;9.23;;;17.70;99.90;;;;;;5066056;28;20059;-75
2023/06/08 08:38:49;;;;;;;15.00;8.50;;;18.00;99.90;;;;;;5043434;28;20052;-75
2023/06/08 08:41:19;;;;;;;14.60;7.75;;;18.40;99.90;;;;;;5045841;28;20040;-75
2023/06/08 08:43:52;;;;;;;13.20;8.95;;;18.90;99.90;;;;;;5059765;28;20506;-75
2023/06/08 08:46:22;;;;;;;11.63;7.25;;;19.20;99.90;;;;;;5045743;28;20040;-75
2023/06/08 08:48:50;;;;;;;12.57;6.78;;;19.60;99.90;;;;;;5027158;28;20079;-75
2023/06/08 08:51:19;;;;;;;15.15;7.50;;;19.70;99.90;;;;;;5039573;28;20040;-75
2023/06/08 08:53:50;;;;;;;15.15;6.75;;;19.80;99.90;;;;;;5050683;28;20041;-75
2023/06/08 08:56:20;;;;;;;16.42;7.03;;;20.00;99.90;;;;;;5040454;28;20561;-75
2023/06/08 08:58:48;;;;;;;13.50;7.22;;;20.20;99.90;;;;;;5036145;28;20047;-75
2023/06/08 09:01:14;;;;;;;14.32;7.18;;;20.20;99.90;;;;;;5045550;28;20369;-75
2023/06/08 09:03:40;;;;;;;10.75;6.65;;;20.30;99.80;;;;;;5045260;28;20159;-75
2023/06/08 09:06:06;;;;;;;13.18;6.38;;;20.40;99.80;;;;;;5040268;28;20127;-75
2023/06/08 09:08:32;;;;;;;15.15;6.75;;;20.60;99.50;;;;;;5045665;28;20147;-75
2023/06/08 09:11:06;;;;;;;11.88;6.38;;;20.80;99.00;;;;;;5034627;28;20120;-75
2023/06/08 09:13:32;;;;;;;10.25;5.80;;;21.00;98.00;;;;;;5041317;28;20110;-75
2023/06/08 09:16:21;;;;;;;14.18;6.68;;;21.20;98.10;;;;;;5033053;28;20029;-75
2023/06/08 09:19:02;;;;;;;14.27;6.75;;;21.40;96.70;;;;;;5041773;28;20036;-75
2023/06/08 09:21:28;;;;;;;13.30;6.70;;;21.50;97.30;;;;;;5011403;28;20049;-75
2023/06/08 09:24:11;;;;;;;12.75;6.43;;;21.70;97.20;;;;;;5040081;28;20045;-75
2023/06/08 09:26:38;;;;;;;12.77;6.55;;;21.70;96.10;;;;;;5043942;28;20716;-75
2023/06/08 09:29:06;;;;;;;12.98;5.95;;;22.00;96.60;;;;;;5043647;28;20048;-75
2023/06/08 09:31:32;;;;;;;10.88;6.43;;;22.10;96.20;;;;;;5035178;28;20040;-75
2023/06/08 09:34:12;;;;;;;10.75;5.90;;;22.30;95.70;;;;;;5046360;28;20045;-75
2023/06/08 09:36:38;;;;;;;15.20;6.00;;;22.40;94.10;;;;;;5043114;28;20159;-75
2023/06/08 09:39:08;;;;;;;10.23;5.55;;;22.60;94.70;;;;;;5037085;28;20123;-75
2023/06/08 09:41:37;;;;;;;9.68;5.50;;;22.70;94.00;;;;;;5031281;28;20555;-75
2023/06/08 09:44:16;;;;;;;12.32;5.43;;;22.70;93.80;;;;;;5031088;28;20045;-75
2023/06/08 09:46:45;;;;;;;11.40;5.57;;;22.80;92.10;;;;;;5030476;28;20049;-75
2023/06/08 09:49:13;;;;;;;11.25;5.97;;;22.50;92.90;;;;;;5042018;28;20041;-75
2023/06/08 09:51:45;;;;;;;10.15;5.35;;;22.40;93.10;;;;;;5037557;28;20102;-75
2023/06/08 09:54:13;;;;;;;16.88;5.65;;;22.40;93.30;;;;;;5040338;28;20064;-75
2023/06/08 09:56:41;;;;;;;12.32;5.50;;;22.60;93.20;;;;;;5036034;28;20052;-75
2023/06/08 09:59:10;;;;;;;9.73;5.15;;;22.70;92.70;;;;;;5033984;28;20067;-75
2023/06/08 10:01:42;;;;;;;9.98;5.00;;;22.80;92.30;;;;;;5034100;28;20051;-76
2023/06/08 10:04:23;;;;;;;11.50;5.68;;;22.80;91.90;;;;;;5042182;28;20056;-76
2023/06/08 10:06:56;;;;;;;13.43;5.32;;;23.00;92.10;;;;;;5022668;28;20114;-75
2023/06/08 10:09:27;;;;;;;10.32;5.40;;;23.10;92.00;;;;;;5035990;28;20045;-75
2023/06/08 10:11:58;;;;;;;10.95;4.95;;;23.30;92.10;;;;;;5050304;28;20037;-75
2023/06/08 10:14:26;;;;;;;9.75;5.15;;;23.60;91.70;;;;;;5039144;28;20045;-75
2023/06/08 10:16:53;;;;;;;8.73;4.75;;;23.70;91.10;;;;;;5058617;28;20401;-75
2023/06/08 10:19:20;;;;;;;10.88;5.60;;;23.70;90.70;;;;;;5042955;28;20033;-75
2023/06/08 10:21:48;;;;;;;10.98;5.28;;;23.90;90.30;;;;;;5034327;28;20049;-76
2023/06/08 10:24:15;;;;;;;10.15;5.00;;;23.90;90.20;;;;;;5045545;28;20055;-76
2023/06/08 10:26:40;;;;;;;9.45;5.28;;;24.00;89.30;;;;;;5018098;28;20045;-75
2023/06/08 10:29:08;;;;;;;11.90;5.45;;;24.10;88.40;;;;;;5037635;28;20040;-76
2023/06/08 10:31:37;;;;;;;12.20;5.97;;;24.30;88.00;;;;;;5037988;28;20068;-75
2023/06/08 10:34:14;;;;;;;11.65;5.20;;;24.30;88.30;;;;;;5035855;28;20037;-76
2023/06/08 10:36:42;;;;;;;12.77;4.90;;;24.50;86.10;;;;;;5032094;28;20087;-76
2023/06/08 10:39:16;;;;;;;11.85;4.68;;;24.50;87.30;;;;;;5030663;28;20472;-76
2023/06/08 10:41:46;;;;;;;10.32;4.95;;;24.60;86.30;;;;;;5018048;28;20052;-76
2023/06/08 10:44:26;;;;;;;11.98;5.13;;;24.80;86.20;;;;;;5015744;28;20489;-75
2023/06/08 10:47:12;;;;;;;9.40;4.50;;;24.90;84.30;;;;;;5027947;28;20397;-76
2023/06/08 10:49:40;;;;;;;11.60;4.50;;;24.90;83.90;;;;;;5034116;28;20401;-75
2023/06/08 10:52:10;;;;;;;9.95;5.03;;;25.10;85.20;;;;;;5042689;28;20073;-76
2023/06/08 10:55:08;;;;;;;9.57;4.50;;;25.20;84.80;;;;;;5050180;28;20618;-78
2023/06/08 10:57:49;;;;;;;8.95;4.38;;;25.40;83.50;;;;;;5036335;28;20041;-76
2023/06/08 11:00:23;;;;;;;11.55;4.50;;;25.50;83.00;;;;;;5033415;28;20108;-76
2023/06/08 11:02:49;;;;;;;10.55;4.40;;;25.60;82.10;;;;;;5029249;28;20390;-76
2023/06/08 11:05:16;;;;;;;9.57;4.53;;;25.70;81.90;;;;;;5047226;28;20036;-76
2023/06/08 11:07:41;;;;;;;8.35;3.92;;;25.80;81.40;;;;;;5037763;28;20040;-76
2023/06/08 11:10:07;;;;;;;12.38;4.70;;;25.90;80.60;;;;;;5026172;28;20045;-75
2023/06/08 11:12:33;;;;;;;9.23;4.95;;;26.00;80.30;;;;;;5028093;28;20052;-76
2023/06/08 11:15:02;;;;;;;10.35;4.80;;;26.10;79.80;;;;;;5034851;28;20126;-76
2023/06/08 11:17:28;;;;;;;10.38;4.50;;;26.10;79.60;;;;;;5043633;28;20038;-76
2023/06/08 11:19:53;;;;;;;10.32;4.85;;;26.20;80.00;;;;;;5047313;28;20080;-76
2023/06/08 11:22:22;;;;;;;13.68;4.70;;;26.40;79.60;;;;;;5038809;28;20103;-76
2023/06/08 11:24:48;;;;;;;8.93;4.47;;;26.50;79.30;;;;;;5030778;28;20095;-76
2023/06/08 11:27:20;;;;;;;7.18;4.40;;;26.60;78.90;;;;;;5026850;28;20041;-76
2023/06/08 11:29:46;;;;;;;10.65;4.97;;;26.70;77.70;;;;;;5031720;28;20045;-76
2023/06/08 11:32:13;;;;;;;11.30;4.93;;;26.70;77.60;;;;;;5040044;28;20037;-76
2023/06/08 11:34:45;;;;;;;9.82;4.50;;;26.70;77.00;;;;;;5039896;28;20392;-76
2023/06/08 11:37:13;;;;;;;11.13;4.80;;;26.90;77.20;;;;;;5045194;28;20068;-76
2023/06/08 11:39:46;;;;;;;11.45;4.90;;;26.90;76.40;;;;;;5050762;28;20506;-76
2023/06/08 11:42:12;;;;;;;9.40;4.45;;;27.00;74.60;;;;;;5027621;28;20039;-76
2023/06/08 11:44:37;;;;;;;9.07;4.65;;;26.90;74.70;;;;;;5024169;28;20045;-76
2023/06/08 11:47:06;;;;;;;9.38;4.25;;;26.90;74.40;;;;;;5054010;28;20032;-76
2023/06/08 11:49:54;;;;;;;8.98;4.65;;;27.00;74.70;;;;;;5027235;28;20055;-76
2023/06/08 11:52:23;;;;;;;8.55;4.70;;;27.00;73.40;;;;;;5035608;28;20048;-75
2023/06/08 11:54:59;;;;;;;9.77;4.43;;;27.00;73.70;;;;;;5041512;28;20044;-75
2023/06/08 11:57:59;;;;;;;9.07;4.60;;;27.00;73.50;;;;;;5043238;28;20488;-76
2023/06/08 12:00:33;;;;;;;9.55;4.68;;;27.10;73.90;;;;;;5007875;28;20119;-76
2023/06/08 12:03:00;;;;;;;10.95;5.15;;;27.10;74.10;;;;;;5043618;28;20497;-76
2023/06/08 12:05:30;;;;;;;13.02;5.00;;;27.20;73.80;;;;;;5033134;28;20187;-78
2023/06/08 12:08:01;;;;;;;10.13;5.22;;;27.20;73.30;;;;;;5035056;28;20060;-79
2023/06/08 12:10:35;;;;;;;9.98;4.70;;;27.20;73.30;;;;;;5030569;28;20105;-78
2023/06/08 12:13:09;;;;;;;9.40;4.72;;;27.20;72.60;;;;;;5021858;28;20451;-78
2023/06/08 12:15:37;;;;;;;9.18;4.80;;;27.20;73.40;;;;;;5022043;28;20146;-78
2023/06/08 12:18:03;;;;;;;13.32;4.93;;;27.20;73.10;;;;;;5045427;28;20481;-81
2023/06/08 12:20:35;;;;;;;9.90;4.65;;;27.20;73.20;;;;;;5034814;28;20393;-82
2023/06/08 12:23:02;;;;;;;12.90;4.55;;;27.20;73.50;;;;;;5027130;28;20059;-78
2023/06/08 12:25:29;;;;;;;9.45;4.60;;;27.20;73.60;;;;;;5043439;28;20086;-78
2023/06/08 12:27:55;;;;;;;12.05;5.07;;;27.30;73.20;;;;;;5016375;28;20037;-79
2023/06/08 12:30:23;;;;;;;9.82;4.43;;;27.40;72.80;;;;;;5046891;28;20047;-79
2023/06/08 12:32:49;;;;;;;11.77;4.60;;;27.40;73.20;;;;;;5041039;28;20040;-79
2023/06/08 12:35:15;;;;;;;8.85;4.50;;;27.40;73.00;;;;;;5046646;28;20430;-78
2023/06/08 12:37:41;;;;;;;9.65;4.63;;;27.50;72.70;;;;;;5043279;28;20040;-78